Airport View

Enter AWOS ICAO identifier for current METAR.

ex. KFNL

K6L4 030010Z AUTO 23006G11KT 10SM CLR 26/16 A3002 RMK AO2

3 Jun 2020 00:18

Frequency: 119.375

Phone: 304-752-0814

Other Area AWOS: KI16 - KCRW - KSJS - KPBX

TAF KCRW 022321Z 0300/0324 25008G13KT P6SM FEW250 FM030100 22006KT P6SM FEW250 FM031500 24012G20KT P6SM SCT250